sensor_id;sensor_type;location;lat;lon;timestamp;temperature;humidity
13992;DHT22;7070;53.586;9.692;2022-07-30T00:01:56;19.30;72.00
13992;DHT22;7070;53.586;9.692;2022-07-30T00:04:23;19.20;72.70
13992;DHT22;7070;53.586;9.692;2022-07-30T00:06:50;19.20;72.10
13992;DHT22;7070;53.586;9.692;2022-07-30T00:09:17;19.20;72.20
13992;DHT22;7070;53.586;9.692;2022-07-30T00:11:44;19.10;72.20
13992;DHT22;7070;53.586;9.692;2022-07-30T00:14:12;19.10;72.20
13992;DHT22;7070;53.586;9.692;2022-07-30T00:16:39;19.10;72.30
13992;DHT22;7070;53.586;9.692;2022-07-30T00:19:06;19.10;72.50
13992;DHT22;7070;53.586;9.692;2022-07-30T00:21:33;19.10;72.50
13992;DHT22;7070;53.586;9.692;2022-07-30T00:24:00;19.00;72.50
13992;DHT22;7070;53.586;9.692;2022-07-30T00:26:27;19.00;72.60
13992;DHT22;7070;53.586;9.692;2022-07-30T00:28:53;19.00;72.70
13992;DHT22;7070;53.586;9.692;2022-07-30T00:31:22;19.00;72.80
13992;DHT22;7070;53.586;9.692;2022-07-30T00:33:49;19.00;72.90
13992;DHT22;7070;53.586;9.692;2022-07-30T00:36:15;18.90;73.00
13992;DHT22;7070;53.586;9.692;2022-07-30T00:38:43;18.90;73.00
13992;DHT22;7070;53.586;9.692;2022-07-30T00:41:10;18.90;73.10
13992;DHT22;7070;53.586;9.692;2022-07-30T00:43:37;18.90;73.30
13992;DHT22;7070;53.586;9.692;2022-07-30T00:46:05;18.90;73.40
13992;DHT22;7070;53.586;9.692;2022-07-30T00:48:33;18.90;73.50
13992;DHT22;7070;53.586;9.692;2022-07-30T00:51:00;18.80;73.40
13992;DHT22;7070;53.586;9.692;2022-07-30T00:53:27;18.80;73.60
13992;DHT22;7070;53.586;9.692;2022-07-30T00:55:54;18.80;73.70
13992;DHT22;7070;53.586;9.692;2022-07-30T00:58:21;18.80;74.10
13992;DHT22;7070;53.586;9.692;2022-07-30T01:00:48;18.80;73.90
13992;DHT22;7070;53.586;9.692;2022-07-30T01:03:15;18.80;74.10
13992;DHT22;7070;53.586;9.692;2022-07-30T01:05:43;18.70;74.00
13992;DHT22;7070;53.586;9.692;2022-07-30T01:08:10;18.70;74.00
13992;DHT22;7070;53.586;9.692;2022-07-30T01:10:37;18.70;74.20
13992;DHT22;7070;53.586;9.692;2022-07-30T01:13:04;18.70;74.30
13992;DHT22;7070;53.586;9.692;2022-07-30T01:15:32;18.70;74.40
13992;DHT22;7070;53.586;9.692;2022-07-30T01:18:01;18.60;74.40
13992;DHT22;7070;53.586;9.692;2022-07-30T01:20:33;18.60;74.50
13992;DHT22;7070;53.586;9.692;2022-07-30T01:23:09;18.60;74.50
13992;DHT22;7070;53.586;9.692;2022-07-30T01:25:58;18.60;74.50
13992;DHT22;7070;53.586;9.692;2022-07-30T01:28:29;18.60;74.60
13992;DHT22;7070;53.586;9.692;2022-07-30T01:30:58;18.50;74.80
13992;DHT22;7070;53.586;9.692;2022-07-30T01:33:27;18.50;75.00
13992;DHT22;7070;53.586;9.692;2022-07-30T01:35:56;18.50;75.00
13992;DHT22;7070;53.586;9.692;2022-07-30T01:38:24;18.50;75.80
13992;DHT22;7070;53.586;9.692;2022-07-30T01:40:53;18.40;75.00
13992;DHT22;7070;53.586;9.692;2022-07-30T01:43:22;18.50;75.30
13992;DHT22;7070;53.586;9.692;2022-07-30T01:45:51;18.50;75.20
13992;DHT22;7070;53.586;9.692;2022-07-30T01:48:20;18.40;75.30
13992;DHT22;7070;53.586;9.692;2022-07-30T01:50:51;18.40;75.30
13992;DHT22;7070;53.586;9.692;2022-07-30T01:53:22;18.40;75.40
13992;DHT22;7070;53.586;9.692;2022-07-30T01:55:49;18.40;75.50
13992;DHT22;7070;53.586;9.692;2022-07-30T01:58:18;18.40;75.70
13992;DHT22;7070;53.586;9.692;2022-07-30T02:00:48;18.40;75.70
13992;DHT22;7070;53.586;9.692;2022-07-30T02:03:16;18.40;75.70
13992;DHT22;7070;53.586;9.692;2022-07-30T02:05:49;18.40;75.80
13992;DHT22;7070;53.586;9.692;2022-07-30T02:08:23;18.40;75.70
13992;DHT22;7070;53.586;9.692;2022-07-30T02:10:56;18.40;75.70
13992;DHT22;7070;53.586;9.692;2022-07-30T02:13:27;18.40;75.80
13992;DHT22;7070;53.586;9.692;2022-07-30T02:15:58;18.30;75.80
13992;DHT22;7070;53.586;9.692;2022-07-30T02:18:30;18.40;75.70
13992;DHT22;7070;53.586;9.692;2022-07-30T02:21:00;18.40;75.70
13992;DHT22;7070;53.586;9.692;2022-07-30T02:23:30;18.40;75.90
13992;DHT22;7070;53.586;9.692;2022-07-30T02:26:01;18.40;75.90
13992;DHT22;7070;53.586;9.692;2022-07-30T02:28:29;18.40;76.00
13992;DHT22;7070;53.586;9.692;2022-07-30T02:31:00;18.30;75.90
13992;DHT22;7070;53.586;9.692;2022-07-30T02:33:32;18.40;76.00
13992;DHT22;7070;53.586;9.692;2022-07-30T02:36:01;18.40;75.90
13992;DHT22;7070;53.586;9.692;2022-07-30T02:38:29;18.40;76.10
13992;DHT22;7070;53.586;9.692;2022-07-30T02:40:59;18.30;76.10
13992;DHT22;7070;53.586;9.692;2022-07-30T02:43:28;18.40;76.20
13992;DHT22;7070;53.586;9.692;2022-07-30T02:45:59;18.30;76.20
13992;DHT22;7070;53.586;9.692;2022-07-30T02:48:27;18.40;76.20
13992;DHT22;7070;53.586;9.692;2022-07-30T02:50:56;18.40;76.30
13992;DHT22;7070;53.586;9.692;2022-07-30T02:53:25;18.30;76.30
13992;DHT22;7070;53.586;9.692;2022-07-30T02:55:52;18.30;76.30
13992;DHT22;7070;53.586;9.692;2022-07-30T02:58:23;18.30;77.20
13992;DHT22;7070;53.586;9.692;2022-07-30T03:00:53;18.30;76.30
13992;DHT22;7070;53.586;9.692;2022-07-30T03:03:22;18.30;76.40
13992;DHT22;7070;53.586;9.692;2022-07-30T03:05:54;18.30;76.40
13992;DHT22;7070;53.586;9.692;2022-07-30T03:08:21;18.30;76.60
13992;DHT22;7070;53.586;9.692;2022-07-30T03:10:50;18.20;76.50
13992;DHT22;7070;53.586;9.692;2022-07-30T03:13:19;18.20;76.50
13992;DHT22;7070;53.586;9.692;2022-07-30T03:15:49;18.30;76.60
13992;DHT22;7070;53.586;9.692;2022-07-30T03:18:17;18.20;76.50
13992;DHT22;7070;53.586;9.692;2022-07-30T03:20:48;18.30;76.70
13992;DHT22;7070;53.586;9.692;2022-07-30T03:23:16;18.20;76.60
13992;DHT22;7070;53.586;9.692;2022-07-30T03:25:46;18.20;76.70
13992;DHT22;7070;53.586;9.692;2022-07-30T03:28:15;18.20;76.80
13992;DHT22;7070;53.586;9.692;2022-07-30T03:30:42;18.20;76.90
13992;DHT22;7070;53.586;9.692;2022-07-30T03:33:10;18.20;76.90
13992;DHT22;7070;53.586;9.692;2022-07-30T03:35:38;18.10;76.90
13992;DHT22;7070;53.586;9.692;2022-07-30T03:38:06;18.20;77.10
13992;DHT22;7070;53.586;9.692;2022-07-30T03:40:33;18.20;77.00
13992;DHT22;7070;53.586;9.692;2022-07-30T03:43:00;18.10;77.00
13992;DHT22;7070;53.586;9.692;2022-07-30T03:45:28;18.20;77.20
13992;DHT22;7070;53.586;9.692;2022-07-30T03:47:55;18.10;77.00
13992;DHT22;7070;53.586;9.692;2022-07-30T03:50:23;18.10;77.10
13992;DHT22;7070;53.586;9.692;2022-07-30T03:52:50;18.10;77.20
13992;DHT22;7070;53.586;9.692;2022-07-30T03:55:18;18.10;77.10
13992;DHT22;7070;53.586;9.692;2022-07-30T03:57:45;18.20;77.20
13992;DHT22;7070;53.586;9.692;2022-07-30T04:00:14;18.10;77.20
13992;DHT22;7070;53.586;9.692;2022-07-30T04:02:41;18.10;77.20
13992;DHT22;7070;53.586;9.692;2022-07-30T04:05:10;16.90;76.10
13992;DHT22;7070;53.586;9.692;2022-07-30T04:07:37;18.10;77.20
13992;DHT22;7070;53.586;9.692;2022-07-30T04:10:05;18.10;77.20
13992;DHT22;7070;53.586;9.692;2022-07-30T04:12:33;18.10;77.10
13992;DHT22;7070;53.586;9.692;2022-07-30T04:15:01;18.10;77.20
13992;DHT22;7070;53.586;9.692;2022-07-30T04:17:32;18.10;77.20
13992;DHT22;7070;53.586;9.692;2022-07-30T04:20:03;18.10;77.00
13992;DHT22;7070;53.586;9.692;2022-07-30T04:22:33;18.20;77.20
13992;DHT22;7070;53.586;9.692;2022-07-30T04:25:01;18.20;77.30
13992;DHT22;7070;53.586;9.692;2022-07-30T04:27:30;18.20;77.30
13992;DHT22;7070;53.586;9.692;2022-07-30T04:29:58;18.20;77.30
13992;DHT22;7070;53.586;9.692;2022-07-30T04:32:26;18.30;77.20
13992;DHT22;7070;53.586;9.692;2022-07-30T04:34:55;18.20;77.20
13992;DHT22;7070;53.586;9.692;2022-07-30T04:37:23;18.20;77.10
13992;DHT22;7070;53.586;9.692;2022-07-30T04:39:51;18.30;77.20
13992;DHT22;7070;53.586;9.692;2022-07-30T04:42:19;18.30;77.10
13992;DHT22;7070;53.586;9.692;2022-07-30T04:44:46;18.40;77.20
13992;DHT22;7070;53.586;9.692;2022-07-30T04:47:15;18.40;77.90
13992;DHT22;7070;53.586;9.692;2022-07-30T04:49:43;18.40;77.10
13992;DHT22;7070;53.586;9.692;2022-07-30T04:52:11;18.50;77.10
13992;DHT22;7070;53.586;9.692;2022-07-30T04:54:42;18.50;76.90
13992;DHT22;7070;53.586;9.692;2022-07-30T04:57:12;18.60;77.00
13992;DHT22;7070;53.586;9.692;2022-07-30T04:59:40;18.60;76.80
13992;DHT22;7070;53.586;9.692;2022-07-30T05:02:08;18.60;76.80
13992;DHT22;7070;53.586;9.692;2022-07-30T05:04:38;18.60;76.70
13992;DHT22;7070;53.586;9.692;2022-07-30T05:07:06;18.60;76.50
13992;DHT22;7070;53.586;9.692;2022-07-30T05:09:34;18.60;76.60
13992;DHT22;7070;53.586;9.692;2022-07-30T05:12:01;18.60;76.60
13992;DHT22;7070;53.586;9.692;2022-07-30T05:14:28;18.60;76.50
13992;DHT22;7070;53.586;9.692;2022-07-30T05:16:55;18.60;76.30
13992;DHT22;7070;53.586;9.692;2022-07-30T05:19:23;18.60;76.40
13992;DHT22;7070;53.586;9.692;2022-07-30T05:21:51;18.60;76.30
13992;DHT22;7070;53.586;9.692;2022-07-30T05:24:18;18.60;76.30
13992;DHT22;7070;53.586;9.692;2022-07-30T05:26:46;18.60;76.30
13992;DHT22;7070;53.586;9.692;2022-07-30T05:29:13;18.60;76.30
13992;DHT22;7070;53.586;9.692;2022-07-30T05:31:40;18.60;76.20
13992;DHT22;7070;53.586;9.692;2022-07-30T05:34:07;18.50;76.00
13992;DHT22;7070;53.586;9.692;2022-07-30T05:36:34;18.60;76.10
13992;DHT22;7070;53.586;9.692;2022-07-30T05:39:02;18.50;76.10
13992;DHT22;7070;53.586;9.692;2022-07-30T05:41:30;18.50;76.00
13992;DHT22;7070;53.586;9.692;2022-07-30T05:43:56;18.50;76.00
13992;DHT22;7070;53.586;9.692;2022-07-30T05:46:23;18.50;76.20
13992;DHT22;7070;53.586;9.692;2022-07-30T05:48:50;18.40;76.10
13992;DHT22;7070;53.586;9.692;2022-07-30T05:51:20;18.40;76.10
13992;DHT22;7070;53.586;9.692;2022-07-30T05:53:47;18.40;76.10
13992;DHT22;7070;53.586;9.692;2022-07-30T05:56:15;18.40;76.40
13992;DHT22;7070;53.586;9.692;2022-07-30T05:58:42;18.30;76.30
13992;DHT22;7070;53.586;9.692;2022-07-30T06:01:09;18.40;76.60
13992;DHT22;7070;53.586;9.692;2022-07-30T06:03:36;18.30;76.60
13992;DHT22;7070;53.586;9.692;2022-07-30T06:06:03;18.30;76.60
13992;DHT22;7070;53.586;9.692;2022-07-30T06:08:30;18.30;76.70
13992;DHT22;7070;53.586;9.692;2022-07-30T06:10:57;18.30;76.70
13992;DHT22;7070;53.586;9.692;2022-07-30T06:13:25;18.30;76.70
13992;DHT22;7070;53.586;9.692;2022-07-30T06:15:52;18.30;76.70
13992;DHT22;7070;53.586;9.692;2022-07-30T06:18:19;18.30;76.80
13992;DHT22;7070;53.586;9.692;2022-07-30T06:20:46;18.40;76.90
13992;DHT22;7070;53.586;9.692;2022-07-30T06:23:16;18.30;76.80
13992;DHT22;7070;53.586;9.692;2022-07-30T06:25:42;18.30;77.00
13992;DHT22;7070;53.586;9.692;2022-07-30T06:28:09;18.40;77.10
13992;DHT22;7070;53.586;9.692;2022-07-30T06:30:37;18.40;77.10
13992;DHT22;7070;53.586;9.692;2022-07-30T06:33:05;18.50;77.10
13992;DHT22;7070;53.586;9.692;2022-07-30T06:35:32;18.50;77.20
13992;DHT22;7070;53.586;9.692;2022-07-30T06:37:59;18.50;77.10
13992;DHT22;7070;53.586;9.692;2022-07-30T06:40:26;18.60;77.20
13992;DHT22;7070;53.586;9.692;2022-07-30T06:42:53;18.70;77.30
13992;DHT22;7070;53.586;9.692;2022-07-30T06:45:20;18.70;77.20
13992;DHT22;7070;53.586;9.692;2022-07-30T06:47:48;18.80;77.30
13992;DHT22;7070;53.586;9.692;2022-07-30T06:50:15;18.90;77.30
13992;DHT22;7070;53.586;9.692;2022-07-30T06:52:43;18.90;77.30
13992;DHT22;7070;53.586;9.692;2022-07-30T06:55:10;19.00;77.30
13992;DHT22;7070;53.586;9.692;2022-07-30T06:57:37;19.10;77.50
13992;DHT22;7070;53.586;9.692;2022-07-30T07:00:05;19.20;77.50
13992;DHT22;7070;53.586;9.692;2022-07-30T07:02:32;19.20;77.40
13992;DHT22;7070;53.586;9.692;2022-07-30T07:05:01;19.30;77.40
13992;DHT22;7070;53.586;9.692;2022-07-30T07:07:27;19.40;77.30
13992;DHT22;7070;53.586;9.692;2022-07-30T07:09:54;19.50;77.30
13992;DHT22;7070;53.586;9.692;2022-07-30T07:12:21;19.60;77.30
13992;DHT22;7070;53.586;9.692;2022-07-30T07:14:48;19.80;77.40
13992;DHT22;7070;53.586;9.692;2022-07-30T07:17:15;19.90;77.20
13992;DHT22;7070;53.586;9.692;2022-07-30T07:19:42;20.00;77.20
13992;DHT22;7070;53.586;9.692;2022-07-30T07:22:10;20.10;77.10
13992;DHT22;7070;53.586;9.692;2022-07-30T07:24:37;20.20;76.90
13992;DHT22;7070;53.586;9.692;2022-07-30T07:27:06;20.30;76.80
13992;DHT22;7070;53.586;9.692;2022-07-30T07:29:33;20.40;76.60
13992;DHT22;7070;53.586;9.692;2022-07-30T07:31:59;20.50;76.60
13992;DHT22;7070;53.586;9.692;2022-07-30T07:34:26;20.60;76.60
13992;DHT22;7070;53.586;9.692;2022-07-30T07:36:53;20.80;76.60
13992;DHT22;7070;53.586;9.692;2022-07-30T07:39:21;20.90;76.50
13992;DHT22;7070;53.586;9.692;2022-07-30T07:41:48;21.10;76.30
13992;DHT22;7070;53.586;9.692;2022-07-30T07:44:15;21.20;76.30
13992;DHT22;7070;53.586;9.692;2022-07-30T07:46:41;21.20;76.00
13992;DHT22;7070;53.586;9.692;2022-07-30T07:49:08;21.40;76.10
13992;DHT22;7070;53.586;9.692;2022-07-30T07:51:36;21.60;76.00
13992;DHT22;7070;53.586;9.692;2022-07-30T07:54:04;21.70;75.80
13992;DHT22;7070;53.586;9.692;2022-07-30T07:56:32;21.80;75.40
13992;DHT22;7070;53.586;9.692;2022-07-30T07:58:59;22.00;75.90
13992;DHT22;7070;53.586;9.692;2022-07-30T08:01:26;22.10;75.00
13992;DHT22;7070;53.586;9.692;2022-07-30T08:03:53;22.20;74.70
13992;DHT22;7070;53.586;9.692;2022-07-30T08:06:20;22.30;74.50
13992;DHT22;7070;53.586;9.692;2022-07-30T08:08:47;22.40;74.20
13992;DHT22;7070;53.586;9.692;2022-07-30T08:11:14;22.50;74.00
13992;DHT22;7070;53.586;9.692;2022-07-30T08:13:42;22.60;73.80
13992;DHT22;7070;53.586;9.692;2022-07-30T08:16:09;22.70;73.60
13992;DHT22;7070;53.586;9.692;2022-07-30T08:18:41;22.60;73.30
13992;DHT22;7070;53.586;9.692;2022-07-30T08:21:08;22.80;73.30
13992;DHT22;7070;53.586;9.692;2022-07-30T08:23:35;22.80;73.30
13992;DHT22;7070;53.586;9.692;2022-07-30T08:26:02;22.90;73.10
13992;DHT22;7070;53.586;9.692;2022-07-30T08:28:30;22.90;73.10
13992;DHT22;7070;53.586;9.692;2022-07-30T08:30:58;22.90;72.80
13992;DHT22;7070;53.586;9.692;2022-07-30T08:33:25;23.00;72.50
13992;DHT22;7070;53.586;9.692;2022-07-30T08:35:52;23.00;72.40
13992;DHT22;7070;53.586;9.692;2022-07-30T08:38:19;22.90;72.10
13992;DHT22;7070;53.586;9.692;2022-07-30T08:40:46;22.90;72.10
13992;DHT22;7070;53.586;9.692;2022-07-30T08:43:13;22.90;72.00
13992;DHT22;7070;53.586;9.692;2022-07-30T08:45:42;22.90;71.90
13992;DHT22;7070;53.586;9.692;2022-07-30T08:48:11;22.80;71.90
13992;DHT22;7070;53.586;9.692;2022-07-30T08:50:39;22.80;71.90
13992;DHT22;7070;53.586;9.692;2022-07-30T08:53:06;22.80;71.90
13992;DHT22;7070;53.586;9.692;2022-07-30T08:55:34;22.80;71.90
13992;DHT22;7070;53.586;9.692;2022-07-30T08:58:01;22.80;71.90
13992;DHT22;7070;53.586;9.692;2022-07-30T09:00:28;22.70;71.90
13992;DHT22;7070;53.586;9.692;2022-07-30T09:02:56;22.60;71.80
13992;DHT22;7070;53.586;9.692;2022-07-30T09:05:24;22.60;71.90
13992;DHT22;7070;53.586;9.692;2022-07-30T09:07:51;22.50;71.80
13992;DHT22;7070;53.586;9.692;2022-07-30T09:10:22;22.50;72.00
13992;DHT22;7070;53.586;9.692;2022-07-30T09:12:50;22.50;72.00
13992;DHT22;7070;53.586;9.692;2022-07-30T09:15:18;22.50;72.10
13992;DHT22;7070;53.586;9.692;2022-07-30T09:17:47;22.50;72.10
13992;DHT22;7070;53.586;9.692;2022-07-30T09:20:14;22.50;72.10
13992;DHT22;7070;53.586;9.692;2022-07-30T09:22:46;22.50;72.20
13992;DHT22;7070;53.586;9.692;2022-07-30T09:25:14;22.60;72.20
13992;DHT22;7070;53.586;9.692;2022-07-30T09:27:45;22.60;72.30
13992;DHT22;7070;53.586;9.692;2022-07-30T09:30:12;22.70;72.20
13992;DHT22;7070;53.586;9.692;2022-07-30T09:32:49;22.80;72.30
13992;DHT22;7070;53.586;9.692;2022-07-30T09:35:16;22.90;72.20
13992;DHT22;7070;53.586;9.692;2022-07-30T09:37:44;23.00;72.20
13992;DHT22;7070;53.586;9.692;2022-07-30T09:40:14;23.10;72.00
13992;DHT22;7070;53.586;9.692;2022-07-30T09:42:42;23.20;71.90
13992;DHT22;7070;53.586;9.692;2022-07-30T09:45:11;23.30;71.60
13992;DHT22;7070;53.586;9.692;2022-07-30T09:47:39;23.30;71.20
13992;DHT22;7070;53.586;9.692;2022-07-30T09:50:08;23.40;71.00
13992;DHT22;7070;53.586;9.692;2022-07-30T09:52:36;23.50;71.00
13992;DHT22;7070;53.586;9.692;2022-07-30T09:55:06;23.50;70.80
13992;DHT22;7070;53.586;9.692;2022-07-30T09:57:33;23.60;70.90
13992;DHT22;7070;53.586;9.692;2022-07-30T10:00:15;23.70;70.80
13992;DHT22;7070;53.586;9.692;2022-07-30T10:02:42;23.70;70.60
13992;DHT22;7070;53.586;9.692;2022-07-30T10:05:10;23.80;70.50
13992;DHT22;7070;53.586;9.692;2022-07-30T10:07:37;23.90;70.20
13992;DHT22;7070;53.586;9.692;2022-07-30T10:10:07;23.90;69.90
13992;DHT22;7070;53.586;9.692;2022-07-30T10:12:34;24.00;69.60
13992;DHT22;7070;53.586;9.692;2022-07-30T10:15:03;24.00;69.40
13992;DHT22;7070;53.586;9.692;2022-07-30T10:17:31;24.00;69.30
13992;DHT22;7070;53.586;9.692;2022-07-30T10:19:58;23.90;69.30
13992;DHT22;7070;53.586;9.692;2022-07-30T10:22:26;24.00;69.50
13992;DHT22;7070;53.586;9.692;2022-07-30T10:24:54;23.90;69.50
13992;DHT22;7070;53.586;9.692;2022-07-30T10:27:22;24.00;69.50
13992;DHT22;7070;53.586;9.692;2022-07-30T10:29:50;24.00;69.40
13992;DHT22;7070;53.586;9.692;2022-07-30T10:32:17;24.00;69.40
13992;DHT22;7070;53.586;9.692;2022-07-30T10:34:44;24.10;69.50
13992;DHT22;7070;53.586;9.692;2022-07-30T10:37:12;24.10;69.30
13992;DHT22;7070;53.586;9.692;2022-07-30T10:39:46;24.10;69.10
13992;DHT22;7070;53.586;9.692;2022-07-30T10:42:26;24.10;69.00
13992;DHT22;7070;53.586;9.692;2022-07-30T10:45:17;24.10;69.00
13992;DHT22;7070;53.586;9.692;2022-07-30T10:47:48;24.00;68.80
13992;DHT22;7070;53.586;9.692;2022-07-30T10:50:17;24.00;68.90
13992;DHT22;7070;53.586;9.692;2022-07-30T10:52:46;24.00;68.90
13992;DHT22;7070;53.586;9.692;2022-07-30T10:55:16;24.00;69.10
13992;DHT22;7070;53.586;9.692;2022-07-30T10:58:02;24.10;69.20
13992;DHT22;7070;53.586;9.692;2022-07-30T11:00:31;24.20;69.20
13992;DHT22;7070;53.586;9.692;2022-07-30T11:03:15;24.30;69.40
13992;DHT22;7070;53.586;9.692;2022-07-30T11:05:43;24.50;69.50
13992;DHT22;7070;53.586;9.692;2022-07-30T11:08:34;24.60;69.30
13992;DHT22;7070;53.586;9.692;2022-07-30T11:11:02;24.80;69.40
13992;DHT22;7070;53.586;9.692;2022-07-30T11:13:56;25.00;69.20
13992;DHT22;7070;53.586;9.692;2022-07-30T11:16:56;25.20;69.00
13992;DHT22;7070;53.586;9.692;2022-07-30T11:19:13;25.40;68.60
13992;DHT22;7070;53.586;9.692;2022-07-30T11:21:42;25.50;68.40
13992;DHT22;7070;53.586;9.692;2022-07-30T11:24:40;25.70;68.20
13992;DHT22;7070;53.586;9.692;2022-07-30T11:27:07;25.80;67.60
13992;DHT22;7070;53.586;9.692;2022-07-30T11:29:39;25.90;67.30
13992;DHT22;7070;53.586;9.692;2022-07-30T11:32:29;25.90;67.30
13992;DHT22;7070;53.586;9.692;2022-07-30T11:35:15;26.00;67.30
13992;DHT22;7070;53.586;9.692;2022-07-30T11:38:01;26.10;67.20
13992;DHT22;7070;53.586;9.692;2022-07-30T11:40:29;26.10;66.90
13992;DHT22;7070;53.586;9.692;2022-07-30T11:43:18;26.10;66.70
13992;DHT22;7070;53.586;9.692;2022-07-30T11:45:48;26.20;66.60
13992;DHT22;7070;53.586;9.692;2022-07-30T11:48:16;26.10;66.40
13992;DHT22;7070;53.586;9.692;2022-07-30T11:50:45;26.10;66.30
13992;DHT22;7070;53.586;9.692;2022-07-30T11:53:15;26.10;66.40
13992;DHT22;7070;53.586;9.692;2022-07-30T11:55:45;26.10;66.10
13992;DHT22;7070;53.586;9.692;2022-07-30T11:58:26;26.00;66.10
13992;DHT22;7070;53.586;9.692;2022-07-30T12:00:57;25.90;66.00
13992;DHT22;7070;53.586;9.692;2022-07-30T12:03:25;25.80;66.10
13992;DHT22;7070;53.586;9.692;2022-07-30T12:05:53;25.80;66.40
13992;DHT22;7070;53.586;9.692;2022-07-30T12:08:20;25.70;66.60
13992;DHT22;7070;53.586;9.692;2022-07-30T12:10:56;25.70;67.40
13992;DHT22;7070;53.586;9.692;2022-07-30T12:13:23;25.70;66.80
13992;DHT22;7070;53.586;9.692;2022-07-30T12:15:50;25.70;66.90
13992;DHT22;7070;53.586;9.692;2022-07-30T12:18:26;25.70;66.90
13992;DHT22;7070;53.586;9.692;2022-07-30T12:20:55;25.70;67.20
13992;DHT22;7070;53.586;9.692;2022-07-30T12:23:22;25.70;67.30
13992;DHT22;7070;53.586;9.692;2022-07-30T12:25:49;25.70;67.50
13992;DHT22;7070;53.586;9.692;2022-07-30T12:28:20;25.80;67.60
13992;DHT22;7070;53.586;9.692;2022-07-30T12:30:47;25.90;67.70
13992;DHT22;7070;53.586;9.692;2022-07-30T12:33:14;26.00;67.50
13992;DHT22;7070;53.586;9.692;2022-07-30T12:35:44;26.00;67.30
13992;DHT22;7070;53.586;9.692;2022-07-30T12:38:11;26.20;67.50
13992;DHT22;7070;53.586;9.692;2022-07-30T12:40:52;26.30;67.30
13992;DHT22;7070;53.586;9.692;2022-07-30T12:43:47;26.40;67.00
13992;DHT22;7070;53.586;9.692;2022-07-30T12:46:16;26.50;66.80
13992;DHT22;7070;53.586;9.692;2022-07-30T12:48:51;26.50;66.50
13992;DHT22;7070;53.586;9.692;2022-07-30T12:51:20;26.60;66.70
13992;DHT22;7070;53.586;9.692;2022-07-30T12:53:48;26.70;66.50
13992;DHT22;7070;53.586;9.692;2022-07-30T12:56:17;26.90;66.40
13992;DHT22;7070;53.586;9.692;2022-07-30T12:58:44;27.00;66.20
13992;DHT22;7070;53.586;9.692;2022-07-30T13:01:11;27.00;65.90
13992;DHT22;7070;53.586;9.692;2022-07-30T13:03:39;27.10;65.90
13992;DHT22;7070;53.586;9.692;2022-07-30T13:06:13;27.10;65.60
13992;DHT22;7070;53.586;9.692;2022-07-30T13:08:51;27.10;65.60
13992;DHT22;7070;53.586;9.692;2022-07-30T13:11:21;27.10;65.40
13992;DHT22;7070;53.586;9.692;2022-07-30T13:13:48;27.10;65.00
13992;DHT22;7070;53.586;9.692;2022-07-30T13:16:16;27.10;65.10
13992;DHT22;7070;53.586;9.692;2022-07-30T13:18:44;27.10;65.00
13992;DHT22;7070;53.586;9.692;2022-07-30T13:21:11;27.10;65.00
13992;DHT22;7070;53.586;9.692;2022-07-30T13:23:39;27.20;65.00
13992;DHT22;7070;53.586;9.692;2022-07-30T13:26:08;27.20;64.90
13992;DHT22;7070;53.586;9.692;2022-07-30T13:28:35;27.20;64.70
13992;DHT22;7070;53.586;9.692;2022-07-30T13:31:03;27.20;64.20
13992;DHT22;7070;53.586;9.692;2022-07-30T13:33:30;27.20;64.10
13992;DHT22;7070;53.586;9.692;2022-07-30T13:35:57;27.20;63.80
13992;DHT22;7070;53.586;9.692;2022-07-30T13:38:24;27.20;63.70
13992;DHT22;7070;53.586;9.692;2022-07-30T13:40:51;27.20;64.50
13992;DHT22;7070;53.586;9.692;2022-07-30T13:43:19;27.20;63.90
13992;DHT22;7070;53.586;9.692;2022-07-30T13:45:47;27.10;63.30
13992;DHT22;7070;53.586;9.692;2022-07-30T13:48:14;27.10;64.00
13992;DHT22;7070;53.586;9.692;2022-07-30T13:50:41;27.10;63.10
13992;DHT22;7070;53.586;9.692;2022-07-30T13:53:08;27.10;63.30
13992;DHT22;7070;53.586;9.692;2022-07-30T13:55:35;27.10;63.00
13992;DHT22;7070;53.586;9.692;2022-07-30T13:58:03;27.10;63.00
13992;DHT22;7070;53.586;9.692;2022-07-30T14:00:33;27.10;63.30
13992;DHT22;7070;53.586;9.692;2022-07-30T14:03:02;27.20;63.50
13992;DHT22;7070;53.586;9.692;2022-07-30T14:05:29;27.20;62.70
13992;DHT22;7070;53.586;9.692;2022-07-30T14:07:57;27.30;62.30
13992;DHT22;7070;53.586;9.692;2022-07-30T14:10:24;27.30;62.10
13992;DHT22;7070;53.586;9.692;2022-07-30T14:12:53;27.40;61.90
13992;DHT22;7070;53.586;9.692;2022-07-30T14:15:21;27.40;61.50
13992;DHT22;7070;53.586;9.692;2022-07-30T14:17:49;27.40;61.60
13992;DHT22;7070;53.586;9.692;2022-07-30T14:20:16;27.40;61.40
13992;DHT22;7070;53.586;9.692;2022-07-30T14:22:44;27.40;61.10
13992;DHT22;7070;53.586;9.692;2022-07-30T14:25:11;27.40;61.30
13992;DHT22;7070;53.586;9.692;2022-07-30T14:27:38;27.50;61.50
13992;DHT22;7070;53.586;9.692;2022-07-30T14:30:07;27.50;61.50
13992;DHT22;7070;53.586;9.692;2022-07-30T14:32:34;27.50;61.80
13992;DHT22;7070;53.586;9.692;2022-07-30T14:35:03;27.60;61.70
13992;DHT22;7070;53.586;9.692;2022-07-30T14:37:30;27.60;61.10
13992;DHT22;7070;53.586;9.692;2022-07-30T14:39:57;27.60;60.30
13992;DHT22;7070;53.586;9.692;2022-07-30T14:42:24;27.60;60.20
13992;DHT22;7070;53.586;9.692;2022-07-30T14:44:51;27.60;60.40
13992;DHT22;7070;53.586;9.692;2022-07-30T14:47:18;27.60;60.50
13992;DHT22;7070;53.586;9.692;2022-07-30T14:49:45;27.60;60.90
13992;DHT22;7070;53.586;9.692;2022-07-30T14:52:13;27.60;61.00
13992;DHT22;7070;53.586;9.692;2022-07-30T14:54:40;27.60;61.30
13992;DHT22;7070;53.586;9.692;2022-07-30T14:57:07;27.70;61.10
13992;DHT22;7070;53.586;9.692;2022-07-30T14:59:34;27.80;61.10
13992;DHT22;7070;53.586;9.692;2022-07-30T15:02:01;27.80;60.70
13992;DHT22;7070;53.586;9.692;2022-07-30T15:04:28;27.90;60.40
13992;DHT22;7070;53.586;9.692;2022-07-30T15:06:55;27.90;59.90
13992;DHT22;7070;53.586;9.692;2022-07-30T15:09:23;27.80;59.50
13992;DHT22;7070;53.586;9.692;2022-07-30T15:11:50;27.70;59.30
13992;DHT22;7070;53.586;9.692;2022-07-30T15:14:17;27.60;59.30
13992;DHT22;7070;53.586;9.692;2022-07-30T15:16:43;27.40;59.30
13992;DHT22;7070;53.586;9.692;2022-07-30T15:19:10;27.20;59.40
13992;DHT22;7070;53.586;9.692;2022-07-30T15:21:38;27.00;59.80
13992;DHT22;7070;53.586;9.692;2022-07-30T15:24:05;26.70;60.10
13992;DHT22;7070;53.586;9.692;2022-07-30T15:26:33;26.50;60.60
13992;DHT22;7070;53.586;9.692;2022-07-30T15:29:00;26.40;61.20
13992;DHT22;7070;53.586;9.692;2022-07-30T15:31:27;26.20;61.40
13992;DHT22;7070;53.586;9.692;2022-07-30T15:33:53;26.10;61.70
13992;DHT22;7070;53.586;9.692;2022-07-30T15:36:20;26.00;62.00
13992;DHT22;7070;53.586;9.692;2022-07-30T15:38:47;25.90;62.50
13992;DHT22;7070;53.586;9.692;2022-07-30T15:41:14;25.90;62.80
13992;DHT22;7070;53.586;9.692;2022-07-30T15:43:42;25.90;62.90
13992;DHT22;7070;53.586;9.692;2022-07-30T15:46:09;25.80;62.90
13992;DHT22;7070;53.586;9.692;2022-07-30T15:48:36;25.60;62.60
13992;DHT22;7070;53.586;9.692;2022-07-30T15:51:04;25.60;62.60
13992;DHT22;7070;53.586;9.692;2022-07-30T15:53:31;25.40;62.50
13992;DHT22;7070;53.586;9.692;2022-07-30T15:55:59;25.30;62.60